createdAt,value
2019-02-04T00:01:56.265Z,2.24
2019-02-04T00:04:30.568Z,2.30
2019-02-04T00:07:01.725Z,2.28
2019-02-04T00:09:33.361Z,2.35
2019-02-04T00:12:04.941Z,2.24
2019-02-04T00:14:36.623Z,2.25
2019-02-04T00:17:08.531Z,2.31
2019-02-04T00:19:40.260Z,2.27
2019-02-04T00:22:12.372Z,2.36
2019-02-04T00:24:43.959Z,2.43
2019-02-04T00:27:15.593Z,2.45
2019-02-04T00:29:47.626Z,2.36
2019-02-04T00:32:19.274Z,2.29
2019-02-04T00:34:51.609Z,2.30
2019-02-04T00:37:23.200Z,2.32
2019-02-04T00:39:54.778Z,2.32
2019-02-04T00:42:26.429Z,2.26
2019-02-04T00:44:58.077Z,2.28
2019-02-04T00:47:29.805Z,2.29
2019-02-04T00:50:16.090Z,2.36
2019-02-04T00:52:47.799Z,2.40
2019-02-04T00:55:19.394Z,2.38
2019-02-04T00:57:51.081Z,2.36
2019-02-04T01:00:29.368Z,2.46
2019-02-04T01:03:01.020Z,2.35
2019-02-04T01:05:32.806Z,2.38
2019-02-04T01:08:05.268Z,2.36
2019-02-04T01:10:36.855Z,2.46
2019-02-04T01:13:08.522Z,2.33
2019-02-04T01:15:40.190Z,2.01
2019-02-04T01:18:11.809Z,1.97
2019-02-04T01:20:43.526Z,1.95
2019-02-04T01:23:15.212Z,1.97
2019-02-04T01:25:46.834Z,1.95
2019-02-04T01:28:20.349Z,2.02
2019-02-04T01:30:52.069Z,2.06
2019-02-04T01:33:23.705Z,2.10
2019-02-04T01:35:55.359Z,2.00
2019-02-04T01:38:27.033Z,2.17
2019-02-04T01:40:58.666Z,2.10
2019-02-04T01:43:30.721Z,2.36
2019-02-04T01:46:02.492Z,2.28
2019-02-04T01:48:34.260Z,2.26
2019-02-04T01:51:06.070Z,2.40
2019-02-04T01:53:37.669Z,2.29
2019-02-04T01:56:09.541Z,2.22
2019-02-04T01:58:41.113Z,2.29
2019-02-04T02:01:12.701Z,2.23
2019-02-04T02:03:45.346Z,2.38
2019-02-04T02:06:16.926Z,2.40
2019-02-04T02:08:48.616Z,2.29
2019-02-04T02:11:20.244Z,2.10
2019-02-04T02:13:51.821Z,2.05
2019-02-04T02:16:23.411Z,2.11
2019-02-04T02:18:55.738Z,2.15
2019-02-04T02:21:27.432Z,2.12
2019-02-04T02:23:59.018Z,2.11
2019-02-04T02:26:30.704Z,2.11
2019-02-04T02:29:02.353Z,2.22
2019-02-04T02:31:34.375Z,2.26
2019-02-04T02:34:05.972Z,2.21
2019-02-04T02:36:37.549Z,2.28
2019-02-04T02:39:09.376Z,2.33
2019-02-04T02:41:40.967Z,2.28
2019-02-04T02:44:12.939Z,2.24
2019-02-04T02:46:44.523Z,2.26
2019-02-04T02:49:16.565Z,2.18
2019-02-04T02:51:48.237Z,2.20
2019-02-04T02:54:19.817Z,2.16
2019-02-04T02:56:51.846Z,2.11
2019-02-04T02:59:23.539Z,2.26
2019-02-04T03:01:55.164Z,2.28
2019-02-04T03:04:26.849Z,2.15
2019-02-04T03:06:58.468Z,2.20
2019-02-04T03:09:30.076Z,2.16
2019-02-04T03:12:01.694Z,2.20
2019-02-04T03:14:33.351Z,2.18
2019-02-04T03:17:05.041Z,2.07
2019-02-04T03:19:37.244Z,2.16
2019-02-04T03:22:08.894Z,2.18
2019-02-04T03:24:40.542Z,2.18
2019-02-04T03:27:12.170Z,2.21
2019-02-04T03:29:43.937Z,2.10
2019-02-04T03:32:15.554Z,2.23
2019-02-04T03:34:47.249Z,2.25
2019-02-04T03:37:18.829Z,2.26
2019-02-04T03:39:51.492Z,2.32
2019-02-04T03:42:23.518Z,2.37
2019-02-04T03:44:55.475Z,2.31
2019-02-04T03:47:28.133Z,2.38
2019-02-04T03:50:01.305Z,2.51
2019-02-04T03:52:34.103Z,2.30
2019-02-04T03:55:08.895Z,2.29
2019-02-04T03:57:41.655Z,2.22
2019-02-04T04:00:34.666Z,2.22
2019-02-04T04:03:06.258Z,2.25
2019-02-04T04:05:37.993Z,2.18
2019-02-04T04:08:10.114Z,2.20
2019-02-04T04:10:41.736Z,2.07
2019-02-04T04:13:13.453Z,2.11
2019-02-04T04:15:45.465Z,2.22
2019-02-04T04:18:17.048Z,2.05
2019-02-04T04:20:48.609Z,2.14
2019-02-04T04:23:20.228Z,2.15
2019-02-04T04:25:52.012Z,2.28
2019-02-04T04:28:24.091Z,2.21
2019-02-04T04:30:55.808Z,2.30
2019-02-04T04:33:27.439Z,2.28
2019-02-04T04:35:59.149Z,2.22
2019-02-04T04:38:31.243Z,2.22
2019-02-04T04:41:03.107Z,2.22
2019-02-04T04:43:34.814Z,2.24
2019-02-04T04:46:06.408Z,2.22
2019-02-04T04:48:38.021Z,2.12
2019-02-04T04:51:09.610Z,2.26
2019-02-04T04:53:41.263Z,2.26
2019-02-04T04:56:12.953Z,2.24
2019-02-04T04:58:44.628Z,2.25
2019-02-04T05:01:16.347Z,2.23
2019-02-04T05:03:48.203Z,2.33
2019-02-04T05:06:19.849Z,2.38
2019-02-04T05:08:51.550Z,2.31
2019-02-04T05:11:23.210Z,2.34
2019-02-04T05:13:54.863Z,2.32
2019-02-04T05:16:26.444Z,2.40
2019-02-04T05:18:58.030Z,2.25
2019-02-04T05:21:29.710Z,2.26
2019-02-04T05:24:01.756Z,2.32
2019-02-04T05:26:33.487Z,2.45
2019-02-04T05:29:05.405Z,2.36
2019-02-04T05:31:37.139Z,2.36
2019-02-04T05:34:08.699Z,2.32
2019-02-04T05:36:40.347Z,2.42
2019-02-04T05:39:12.445Z,2.43
2019-02-04T05:41:44.351Z,2.30
2019-02-04T05:44:15.941Z,2.25
2019-02-04T05:46:47.589Z,2.21
2019-02-04T05:49:19.168Z,2.27
2019-02-04T05:51:50.751Z,2.27
2019-02-04T05:54:22.779Z,2.38
2019-02-04T05:56:54.366Z,2.32
2019-02-04T05:59:26.023Z,2.28
2019-02-04T06:01:57.695Z,2.29
2019-02-04T06:04:29.342Z,2.21
2019-02-04T06:07:00.984Z,2.19
2019-02-04T06:09:32.805Z,2.07
2019-02-04T06:12:04.401Z,2.02
2019-02-04T06:14:36.506Z,2.07
2019-02-04T06:17:09.851Z,2.20
2019-02-04T06:19:41.515Z,2.42
2019-02-04T06:22:13.183Z,2.39
2019-02-04T06:24:45.416Z,2.31
2019-02-04T06:27:18.984Z,2.16
2019-02-04T06:29:50.967Z,2.13
2019-02-04T06:32:22.619Z,2.21
2019-02-04T06:34:54.231Z,2.21
2019-02-04T06:37:25.990Z,2.25
2019-02-04T06:39:58.027Z,2.21
2019-02-04T06:42:29.694Z,2.18
2019-02-04T06:45:01.263Z,2.36
2019-02-04T06:47:32.929Z,2.25
2019-02-04T06:50:09.514Z,2.30
2019-02-04T06:52:41.532Z,2.16
2019-02-04T06:55:24.193Z,2.09
2019-02-04T06:57:56.908Z,2.22
2019-02-04T07:02:22.558Z,2.27
2019-02-04T07:04:54.156Z,2.34
2019-02-04T07:07:26.261Z,2.30
2019-02-04T07:09:58.206Z,2.31
2019-02-04T07:12:29.784Z,2.40
2019-02-04T07:15:01.359Z,2.33
2019-02-04T07:17:34.028Z,2.22
2019-02-04T07:20:13.717Z,2.31
2019-02-04T07:22:45.306Z,2.27
2019-02-04T07:25:17.684Z,2.34
2019-02-04T07:27:49.357Z,2.40
2019-02-04T07:30:27.331Z,2.44
2019-02-04T07:32:59.394Z,2.50
2019-02-04T07:35:31.142Z,2.34
2019-02-04T07:38:02.891Z,2.41
2019-02-04T07:40:35.211Z,2.38
2019-02-04T07:43:06.865Z,2.35
2019-02-04T07:45:38.478Z,2.35
2019-02-04T07:48:10.177Z,2.46
2019-02-04T07:50:41.850Z,2.49
2019-02-04T07:53:13.494Z,2.55
2019-02-04T07:55:45.155Z,2.37
2019-02-04T07:58:16.824Z,2.24
2019-02-04T08:00:48.398Z,2.39
2019-02-04T08:03:20.065Z,2.32
2019-02-04T08:05:51.717Z,2.52
2019-02-04T08:08:23.435Z,2.37
2019-02-04T08:10:55.042Z,2.42
2019-02-04T08:13:26.583Z,2.50
2019-02-04T08:15:58.260Z,2.53
2019-02-04T08:18:31.082Z,2.56
2019-02-04T08:21:02.828Z,2.59
2019-02-04T08:23:35.560Z,2.85
2019-02-04T08:26:07.544Z,2.86
2019-02-04T08:28:39.150Z,2.89
2019-02-04T08:31:10.817Z,2.89
2019-02-04T08:33:42.972Z,3.21
2019-02-04T08:36:14.815Z,3.02
2019-02-04T08:38:46.599Z,2.96
2019-02-04T08:41:18.215Z,2.96
2019-02-04T08:43:50.074Z,3.05
2019-02-04T08:46:21.869Z,2.95
2019-02-04T08:48:53.668Z,2.73
2019-02-04T08:51:25.310Z,2.69
2019-02-04T08:53:56.975Z,2.74
2019-02-04T08:56:28.668Z,2.76
2019-02-04T08:59:00.326Z,2.89
2019-02-04T09:01:31.932Z,2.93
2019-02-04T09:06:32.906Z,3.03
2019-02-04T09:09:07.515Z,3.03
2019-02-04T09:11:39.309Z,3.08
2019-02-04T09:14:10.985Z,2.95
2019-02-04T09:16:42.754Z,3.12
2019-02-04T09:19:14.467Z,3.34
2019-02-04T09:21:46.220Z,3.45
2019-02-04T09:24:17.793Z,3.28
2019-02-04T09:26:49.409Z,3.19
2019-02-04T09:29:21.109Z,3.31
2019-02-04T09:31:52.706Z,3.36
2019-02-04T09:34:24.276Z,3.42
2019-02-04T09:36:55.971Z,3.29
2019-02-04T09:39:27.790Z,3.49
2019-02-04T09:41:59.441Z,3.59
2019-02-04T09:44:31.051Z,3.58
2019-02-04T09:47:02.619Z,3.58
2019-02-04T09:49:34.282Z,3.53
2019-02-04T09:52:06.089Z,3.52
2019-02-04T09:54:37.912Z,3.81
2019-02-04T09:57:09.589Z,3.69
2019-02-04T09:59:41.268Z,3.59
2019-02-04T10:02:12.893Z,3.37
2019-02-04T10:04:44.651Z,3.55
2019-02-04T10:07:16.318Z,3.55
2019-02-04T10:09:47.881Z,3.70
2019-02-04T10:12:19.585Z,3.75
2019-02-04T10:14:51.286Z,3.75
2019-02-04T10:17:22.957Z,3.42
2019-02-04T10:19:54.714Z,3.56
2019-02-04T10:22:26.407Z,3.33
2019-02-04T10:24:58.048Z,3.32
2019-02-04T10:27:30.021Z,3.34
2019-02-04T10:30:01.707Z,3.21
2019-02-04T10:32:33.473Z,3.40
2019-02-04T10:35:16.616Z,3.39
2019-02-04T10:37:41.324Z,3.71
2019-02-04T10:40:20.255Z,4.20
2019-02-04T10:42:51.847Z,4.45
2019-02-04T10:45:23.629Z,4.20
2019-02-04T10:47:55.307Z,4.58
2019-02-04T10:50:45.130Z,4.46
2019-02-04T10:53:09.441Z,4.34
2019-02-04T10:55:41.133Z,3.93
2019-02-04T10:58:14.844Z,3.93
2019-02-04T11:00:46.615Z,4.02
2019-02-04T11:03:20.052Z,4.35
2019-02-04T11:05:51.696Z,4.59
2019-02-04T11:08:23.466Z,4.23
2019-02-04T11:10:55.251Z,4.44
2019-02-04T11:13:27.813Z,4.33
2019-02-04T11:15:59.533Z,4.17
2019-02-04T11:18:31.151Z,4.37
2019-02-04T11:21:02.936Z,4.28
2019-02-04T11:23:34.582Z,4.10
2019-02-04T11:26:06.423Z,4.00
2019-02-04T11:28:38.495Z,3.71
2019-02-04T11:31:10.250Z,3.81
2019-02-04T11:33:41.975Z,3.95
2019-02-04T11:36:13.720Z,4.26
2019-02-04T11:38:45.376Z,3.99
2019-02-04T11:41:17.305Z,3.65
2019-02-04T11:43:49.431Z,3.64
2019-02-04T11:46:21.092Z,4.17
2019-02-04T11:48:52.770Z,4.06
2019-02-04T11:51:24.447Z,4.54
2019-02-04T11:53:56.024Z,4.63
2019-02-04T11:56:27.614Z,4.74
2019-02-04T11:58:59.783Z,4.84
2019-02-04T12:01:31.418Z,4.98
2019-02-04T12:04:02.980Z,4.66
2019-02-04T12:06:34.582Z,4.44
2019-02-04T12:09:08.346Z,4.58
2019-02-04T12:11:39.985Z,4.84
2019-02-04T12:14:12.120Z,4.84
2019-02-04T12:16:45.361Z,4.61
2019-02-04T12:19:17.017Z,4.40
2019-02-04T12:21:48.691Z,4.79
2019-02-04T12:24:20.352Z,4.48
2019-02-04T12:26:52.619Z,4.66
2019-02-04T12:29:24.861Z,4.85
2019-02-04T12:31:56.518Z,4.94
2019-02-04T12:34:28.092Z,5.01
2019-02-04T12:36:59.833Z,5.09
2019-02-04T12:39:31.484Z,4.98
2019-02-04T12:42:03.531Z,4.86
2019-02-04T12:44:36.741Z,4.76
2019-02-04T12:47:09.084Z,4.98
2019-02-04T12:49:40.671Z,5.13
2019-02-04T12:52:12.558Z,5.06
2019-02-04T12:54:44.224Z,5.14
2019-02-04T12:57:15.997Z,4.92
2019-02-04T12:59:48.078Z,4.95
2019-02-04T13:02:19.779Z,5.00
2019-02-04T13:04:51.500Z,5.07
2019-02-04T13:07:23.088Z,4.91
2019-02-04T13:09:54.694Z,4.77
2019-02-04T13:12:26.449Z,4.52
2019-02-04T13:14:58.931Z,4.36
2019-02-04T13:17:30.600Z,4.49
2019-02-04T13:20:02.176Z,4.67
2019-02-04T13:22:33.939Z,4.56
2019-02-04T13:25:10.357Z,4.58
2019-02-04T13:27:42.001Z,4.33
2019-02-04T13:30:18.675Z,4.52
2019-02-04T13:32:50.398Z,4.32
2019-02-04T13:35:22.136Z,4.59
2019-02-04T13:37:54.222Z,4.67
2019-02-04T13:40:32.069Z,4.75
2019-02-04T13:43:03.665Z,4.75
2019-02-04T13:45:35.719Z,4.63
2019-02-04T13:48:08.588Z,4.34
2019-02-04T13:50:40.536Z,4.23
2019-02-04T13:53:12.197Z,4.30
2019-02-04T13:55:43.825Z,4.26
2019-02-04T13:58:15.414Z,4.52
2019-02-04T14:00:47.456Z,4.46
2019-02-04T14:03:19.227Z,4.46
2019-02-04T14:05:50.814Z,4.50
2019-02-04T14:08:22.407Z,4.40
2019-02-04T14:10:54.188Z,4.14
2019-02-04T14:13:26.231Z,4.23
2019-02-04T14:15:58.060Z,4.30
2019-02-04T14:18:29.658Z,4.14
2019-02-04T14:21:01.295Z,4.00
2019-02-04T14:23:33.969Z,4.02
2019-02-04T14:26:06.729Z,3.91
2019-02-04T14:28:38.349Z,3.82
2019-02-04T14:31:10.065Z,3.71
2019-02-04T14:33:41.770Z,3.90
2019-02-04T14:36:13.489Z,3.71
2019-02-04T14:38:45.085Z,3.80
2019-02-04T14:41:16.875Z,3.92
2019-02-04T14:43:48.655Z,3.74
2019-02-04T14:46:28.073Z,3.47
2019-02-04T14:49:22.767Z,3.52
2019-02-04T14:52:24.083Z,3.77
2019-02-04T14:55:19.049Z,3.87
2019-02-04T14:58:18.410Z,3.97
2019-02-04T15:01:20.049Z,3.68
2019-02-04T15:04:19.526Z,3.71
2019-02-04T15:07:16.531Z,3.65
2019-02-04T15:10:07.784Z,3.57
2019-02-04T15:13:12.513Z,3.59
2019-02-04T15:16:00.729Z,3.74
2019-02-04T15:19:10.598Z,3.92
2019-02-04T15:22:09.618Z,4.03
2019-02-04T15:25:17.881Z,3.88
2019-02-04T15:28:09.437Z,3.78
2019-02-04T15:30:45.968Z,3.84
2019-02-04T15:33:34.629Z,3.65
2019-02-04T15:36:41.855Z,3.50
2019-02-04T15:39:27.555Z,3.49
2019-02-04T15:42:12.752Z,3.55
2019-02-04T15:44:50.356Z,3.54
2019-02-04T15:47:35.937Z,3.35
2019-02-04T15:50:45.729Z,3.26
2019-02-04T15:53:17.351Z,3.14
2019-02-04T15:55:49.016Z,3.27
2019-02-04T15:58:20.882Z,3.17
2019-02-04T16:00:52.794Z,3.34
2019-02-04T16:03:24.395Z,3.33
2019-02-04T16:27:13.316Z,4.05
2019-02-04T16:29:45.574Z,3.61
2019-02-04T16:32:18.293Z,3.67
2019-02-04T16:34:50.017Z,3.71
2019-02-04T16:37:21.674Z,3.55
2019-02-04T16:39:53.544Z,3.60
2019-02-04T16:42:25.178Z,3.56
2019-02-04T16:44:56.830Z,3.27
2019-02-04T16:47:28.420Z,3.30
2019-02-04T16:50:00.186Z,3.32
2019-02-04T16:52:31.986Z,3.30
2019-02-04T16:55:06.211Z,3.33
2019-02-04T16:57:37.779Z,3.30
2019-02-04T17:00:14.277Z,3.39
2019-02-04T17:02:45.953Z,3.55
2019-02-04T17:05:18.302Z,3.43
2019-02-04T17:07:50.104Z,3.33
2019-02-04T17:10:25.061Z,3.14
2019-02-04T17:12:56.643Z,3.16
2019-02-04T17:15:28.656Z,3.04
2019-02-04T17:18:00.317Z,3.09
2019-02-04T17:20:32.582Z,3.12
2019-02-04T17:23:04.191Z,3.25
2019-02-04T17:25:36.095Z,3.39
2019-02-04T17:28:08.975Z,3.55
2019-02-04T17:30:40.736Z,3.44
2019-02-04T17:33:12.436Z,3.35
2019-02-04T17:35:44.082Z,3.36
2019-02-04T17:38:15.842Z,3.22
2019-02-04T17:40:48.616Z,3.12
2019-02-04T17:43:20.321Z,3.11
2019-02-04T17:45:53.087Z,3.23
2019-02-04T17:48:24.840Z,3.25
2019-02-04T17:50:56.392Z,3.19
2019-02-04T17:53:34.405Z,3.17
2019-02-04T17:56:03.352Z,3.28
2019-02-04T17:58:34.945Z,3.26
2019-02-04T18:01:07.479Z,3.36
2019-02-04T18:03:39.981Z,3.23
2019-02-04T18:06:11.599Z,3.25
2019-02-04T18:08:43.615Z,3.27
2019-02-04T18:11:15.280Z,3.35
2019-02-04T18:13:46.914Z,3.26
2019-02-04T18:16:18.779Z,3.30
2019-02-04T18:18:50.513Z,3.12
2019-02-04T18:21:22.814Z,3.20
2019-02-04T18:23:54.488Z,3.27
2019-02-04T18:26:27.804Z,3.17
2019-02-04T18:29:00.277Z,3.16
2019-02-04T18:31:34.076Z,3.31
2019-02-04T18:34:05.321Z,3.38
2019-02-04T18:36:36.891Z,3.35
2019-02-04T18:39:09.246Z,3.12
2019-02-04T18:41:40.842Z,3.06
2019-02-04T18:44:12.443Z,3.29
2019-02-04T18:46:44.346Z,3.23
2019-02-04T18:49:15.923Z,3.30
2019-02-04T18:51:48.548Z,3.35
2019-02-04T18:54:20.131Z,3.41
2019-02-04T18:56:51.722Z,3.56
2019-02-04T18:59:23.371Z,3.54
2019-02-04T19:01:55.143Z,3.55
2019-02-04T19:04:27.103Z,3.50
2019-02-04T19:06:58.687Z,3.32
2019-02-04T19:09:30.289Z,3.17
2019-02-04T19:12:01.927Z,3.33
2019-02-04T19:14:33.915Z,3.31
2019-02-04T19:17:05.502Z,3.41
2019-02-04T19:19:37.072Z,3.46
2019-02-04T19:22:08.738Z,3.60
2019-02-04T19:24:40.396Z,3.50
2019-02-04T19:27:12.366Z,3.36
2019-02-04T19:29:43.940Z,3.34
2019-02-04T19:32:15.523Z,3.23
2019-02-04T19:34:47.113Z,3.19
2019-02-04T19:37:18.742Z,3.15
2019-02-04T19:39:50.696Z,2.91
2019-02-04T19:42:22.403Z,2.98
2019-02-04T19:44:53.988Z,3.03
2019-02-04T19:47:25.571Z,3.24
2019-02-04T19:49:57.149Z,3.11
2019-02-04T19:52:29.129Z,3.14
2019-02-04T19:55:00.700Z,3.25
2019-02-04T19:57:32.435Z,3.29
2019-02-04T20:00:06.929Z,3.39
2019-02-04T20:02:41.028Z,3.38
2019-02-04T20:05:16.741Z,3.51
2019-02-04T20:07:48.319Z,3.55
2019-02-04T20:10:22.420Z,3.46
2019-02-04T20:12:54.066Z,3.05
2019-02-04T20:15:31.429Z,3.17
2019-02-04T20:18:03.185Z,3.18
2019-02-04T20:20:34.770Z,3.04
2019-02-04T20:23:06.415Z,3.11
2019-02-04T20:25:38.168Z,3.16
2019-02-04T20:28:11.350Z,2.99
2019-02-04T20:30:46.517Z,3.25
2019-02-04T20:33:18.244Z,3.38
2019-02-04T20:35:50.937Z,3.39
2019-02-04T20:38:22.587Z,3.42
2019-02-04T20:40:54.159Z,3.23
2019-02-04T20:43:25.820Z,3.41
2019-02-04T20:45:57.577Z,3.46
2019-02-04T20:48:29.131Z,3.50
2019-02-04T20:51:00.778Z,3.49
2019-02-04T20:53:32.559Z,3.36
2019-02-04T20:56:04.454Z,3.17
2019-02-04T20:58:36.098Z,3.23
2019-02-04T21:01:08.740Z,3.24
2019-02-04T21:03:40.317Z,3.28
2019-02-04T21:06:11.892Z,3.21
2019-02-04T21:08:43.447Z,3.27
2019-02-04T21:11:15.629Z,3.26
2019-02-04T21:13:47.370Z,3.34
2019-02-04T21:16:19.048Z,3.27
2019-02-04T21:18:50.892Z,3.16
2019-02-04T21:21:23.897Z,3.15
2019-02-04T21:23:55.846Z,3.05
2019-02-04T21:26:27.527Z,2.94
2019-02-04T21:28:59.088Z,2.82
2019-02-04T21:31:30.652Z,2.77
2019-02-04T21:34:02.692Z,2.70
2019-02-04T21:36:34.949Z,2.73
2019-02-04T21:39:07.799Z,2.70
2019-02-04T21:41:39.992Z,2.55
2019-02-04T21:44:11.551Z,2.45
2019-02-04T21:46:43.118Z,2.45
2019-02-04T21:49:15.776Z,2.39
2019-02-04T21:51:47.361Z,2.40
2019-02-04T21:54:19.204Z,2.36
2019-02-04T21:56:50.845Z,2.36
2019-02-04T21:59:22.495Z,2.38
2019-02-04T22:01:54.159Z,2.37
2019-02-04T22:04:25.806Z,2.39
2019-02-04T22:06:57.875Z,2.37
2019-02-04T22:09:29.589Z,2.30
2019-02-04T22:12:01.318Z,2.25
2019-02-04T22:14:34.087Z,2.19
2019-02-04T22:17:05.710Z,2.10
2019-02-04T22:19:37.283Z,2.02
2019-02-04T22:22:08.884Z,1.93
2019-02-04T22:24:40.505Z,2.04
2019-02-04T22:27:12.091Z,2.03
2019-02-04T22:29:43.685Z,2.08
2019-02-04T22:32:15.239Z,2.08
2019-02-04T22:34:47.003Z,2.03
2019-02-04T22:37:18.583Z,2.06
2019-02-04T22:39:50.169Z,1.98
2019-02-04T22:42:21.742Z,2.14
2019-02-04T22:44:53.322Z,2.09
2019-02-04T22:47:24.964Z,2.11
2019-02-04T22:49:56.524Z,2.04
2019-02-04T22:52:29.173Z,2.15
2019-02-04T22:55:00.785Z,2.21
2019-02-04T22:57:32.435Z,2.20
2019-02-04T23:00:06.375Z,2.05
2019-02-04T23:02:38.037Z,2.02
2019-02-04T23:05:09.616Z,1.99
2019-02-04T23:07:41.241Z,1.92
2019-02-04T23:10:13.259Z,1.89
2019-02-04T23:12:46.403Z,1.92
2019-02-04T23:15:18.090Z,1.80
2019-02-04T23:17:49.808Z,1.79
2019-02-04T23:20:21.463Z,1.92
2019-02-04T23:22:53.356Z,1.83
2019-02-04T23:25:24.995Z,1.78
2019-02-04T23:27:56.627Z,1.77
2019-02-04T23:30:28.259Z,1.84
2019-02-04T23:32:59.857Z,1.84
2019-02-04T23:35:31.438Z,1.76
2019-02-04T23:38:04.583Z,1.76
2019-02-04T23:40:36.149Z,1.80
2019-02-04T23:43:07.766Z,1.69
2019-02-04T23:45:39.322Z,1.64
2019-02-04T23:48:11.051Z,1.71
2019-02-04T23:50:42.641Z,1.78
2019-02-04T23:53:14.219Z,1.77
2019-02-04T23:55:54.282Z,1.79
2019-02-04T23:58:19.175Z,1.67
